Terminal Aerodrome Forecast
Issued by NWS

Home | Current Version | Previous Version | Graphics & Text | Print | Product List | Glossary On
Versions: 1 2 3 4 5 6 7 8 9 10 11 12 13 14 15 16 17 18 19 20 21 22 23 24 25 26 27
000
FTUS43 KABR 052322 AAE
TAFPIR
TAF AMD
KPIR 052322Z 0523/0624 31025G36KT 1/2SM -SN BLSN OVC015
     FM060200 31022G32KT P6SM BKN035
     FM061800 30022G32KT P6SM SCT070=

USA.gov is the U.S. government's official web portal to all federal, state and local government web resources and services.